Time;durP1;ratioP1;P1;durP2;ratioP2;P2;SDS_P1;SDS_P2;PMS_P1;PMS_P2;Temp;Humidity;BMP_temperature;BMP_pressure;BME280_temperature;BME280_humidity;BME280_pressure;Samples;Min_cycle;Max_cycle;Signal;HPM_P1;HPM_P2
2023/07/23 00:02:29;;;;;;;;;;;22.30;58.30;;;;;;10334879;28;94836;-61
2023/07/23 00:07:31;;;;;;;;;;;22.30;58.30;;;;;;10332779;28;92525;-61
2023/07/23 00:12:33;;;;;;;;;;;22.30;58.10;;;;;;10315846;28;93698;-61
2023/07/23 00:17:35;;;;;;;;;;;22.30;58.20;;;;;;10315333;28;94569;-60
2023/07/23 00:22:37;;;;;;;;;;;22.30;58.30;;;;;;10333070;28;93885;-61
2023/07/23 00:27:39;;;;;;;;;;;22.30;58.30;;;;;;10330425;28;96902;-60
2023/07/23 00:32:40;;;;;;;;;;;22.30;58.20;;;;;;10332417;28;93455;-61
2023/07/23 00:37:42;;;;;;;;;;;22.30;58.30;;;;;;10314091;28;93400;-61
2023/07/23 00:42:44;;;;;;;;;;;22.30;58.20;;;;;;10331732;28;93452;-61
2023/07/23 00:47:46;;;;;;;;;;;22.20;58.30;;;;;;10331246;28;93543;-61
2023/07/23 00:52:48;;;;;;;;;;;22.20;58.20;;;;;;10313947;28;94692;-60
2023/07/23 00:57:50;;;;;;;;;;;22.20;58.30;;;;;;10331780;28;94724;-61
2023/07/23 01:02:52;;;;;;;;;;;22.20;58.40;;;;;;10314092;28;93673;-60
2023/07/23 01:07:54;;;;;;;;;;;22.20;58.40;;;;;;10331041;28;93423;-60
2023/07/23 01:12:56;;;;;;;;;;;22.20;58.40;;;;;;10332124;28;94967;-60
2023/07/23 01:17:59;;;;;;;;;;;22.20;58.30;;;;;;10328215;28;95841;-60
2023/07/23 01:23:01;;;;;;;;;;;22.20;58.30;;;;;;10312450;28;93414;-59
2023/07/23 01:28:02;;;;;;;;;;;22.10;58.40;;;;;;10331354;28;93475;-60
2023/07/23 01:33:05;;;;;;;;;;;22.10;58.30;;;;;;10331087;28;94267;-60
2023/07/23 01:38:08;;;;;;;;;;;22.10;58.40;;;;;;10329070;28;93791;-60
2023/07/23 01:43:09;;;;;;;;;;;22.10;58.30;;;;;;10330802;28;94418;-61
2023/07/23 01:48:12;;;;;;;;;;;22.10;58.50;;;;;;10310723;28;94402;-60
2023/07/23 01:53:13;;;;;;;;;;;22.10;58.60;;;;;;10331149;28;93600;-61
2023/07/23 01:58:18;;;;;;;;;;;22.10;58.50;;;;;;10331116;28;94390;-61
2023/07/23 02:03:20;;;;;;;;;;;22.10;58.60;;;;;;10312095;28;92713;-60
2023/07/23 02:08:22;;;;;;;;;;;22.10;58.50;;;;;;10308955;28;96236;-61
2023/07/23 02:13:24;;;;;;;;;;;22.00;58.40;;;;;;10328231;28;92975;-61
2023/07/23 02:18:25;;;;;;;;;;;22.10;58.50;;;;;;10329710;28;93105;-60
2023/07/23 02:23:27;;;;;;;;;;;22.00;58.60;;;;;;10329311;28;94767;-60
2023/07/23 02:28:29;;;;;;;;;;;22.00;58.60;;;;;;10330435;28;93601;-60
2023/07/23 02:33:31;;;;;;;;;;;22.00;58.60;;;;;;10329469;28;94401;-60
2023/07/23 02:38:33;;;;;;;;;;;22.00;58.60;;;;;;10327381;28;93477;-60
2023/07/23 02:43:34;;;;;;;;;;;22.00;58.50;;;;;;10329929;28;93801;-60
2023/07/23 02:48:36;;;;;;;;;;;22.00;58.50;;;;;;10327582;28;93653;-61
2023/07/23 02:53:39;;;;;;;;;;;21.90;58.50;;;;;;10309725;28;92777;-60
2023/07/23 02:58:41;;;;;;;;;;;21.90;58.50;;;;;;10325406;28;96020;-60
2023/07/23 03:03:47;;;;;;;;;;;22.00;58.60;;;;;;10310681;28;94506;-60
2023/07/23 03:08:49;;;;;;;;;;;21.90;58.50;;;;;;10328340;28;95118;-60
2023/07/23 03:13:51;;;;;;;;;;;21.90;58.60;;;;;;10325392;28;95608;-60
2023/07/23 03:18:53;;;;;;;;;;;21.90;58.80;;;;;;10329462;28;96872;-60
2023/07/23 03:23:54;;;;;;;;;;;21.90;58.90;;;;;;10314192;28;93746;-60
2023/07/23 03:28:56;;;;;;;;;;;21.90;58.90;;;;;;10335255;28;93787;-61
2023/07/23 03:33:58;;;;;;;;;;;21.90;58.80;;;;;;10317907;28;92732;-61
2023/07/23 03:39:00;;;;;;;;;;;21.90;58.90;;;;;;10315942;28;93367;-60
2023/07/23 03:44:01;;;;;;;;;;;21.80;59.00;;;;;;10334512;28;94505;-61
2023/07/23 06:46:27;;;;;;;;;;;21.90;58.80;;;;;;10288925;28;92287;-65
2023/07/23 06:51:29;;;;;;;;;;;21.90;59.00;;;;;;10320846;28;92933;-65
2023/07/23 06:56:31;;;;;;;;;;;21.90;59.00;;;;;;10328159;28;93448;-65
2023/07/23 07:01:33;;;;;;;;;;;21.90;59.00;;;;;;10331860;28;95867;-65
2023/07/23 07:06:34;;;;;;;;;;;21.90;58.90;;;;;;10335349;28;93576;-65
2023/07/23 07:11:36;;;;;;;;;;;22.00;59.20;;;;;;10333584;28;93433;-65
2023/07/23 07:16:38;;;;;;;;;;;21.90;59.00;;;;;;10316543;28;93470;-65
2023/07/23 07:21:40;;;;;;;;;;;21.90;59.10;;;;;;10333900;28;93648;-65
2023/07/23 07:26:41;;;;;;;;;;;22.00;59.00;;;;;;10333191;28;93421;-66
2023/07/23 07:31:43;;;;;;;;;;;21.90;58.90;;;;;;10333649;28;93430;-66
2023/07/23 07:36:45;;;;;;;;;;;21.90;59.20;;;;;;10334154;28;92869;-65
2023/07/23 07:41:46;;;;;;;;;;;21.90;59.20;;;;;;10314918;28;93539;-66
2023/07/23 07:46:48;;;;;;;;;;;21.90;59.20;;;;;;10332846;28;94154;-65
2023/07/23 07:51:50;;;;;;;;;;;21.90;59.10;;;;;;10330794;28;96793;-65
2023/07/23 07:56:52;;;;;;;;;;;21.90;59.20;;;;;;10332614;28;94478;-65
2023/07/23 08:01:54;;;;;;;;;;;21.90;59.80;;;;;;10332710;28;93577;-67
2023/07/23 08:06:56;;;;;;;;;;;21.90;60.20;;;;;;10334504;28;92978;-67
2023/07/23 08:11:59;;;;;;;;;;;21.90;60.00;;;;;;10331546;28;93445;-67
2023/07/23 08:17:01;;;;;;;;;;;21.80;60.20;;;;;;10332342;28;93563;-67
2023/07/23 08:22:02;;;;;;;;;;;21.90;60.30;;;;;;10331454;28;93487;-68
2023/07/23 08:27:06;;;;;;;;;;;21.80;60.10;;;;;;10332967;28;93042;-67
2023/07/23 08:32:09;;;;;;;;;;;21.80;60.10;;;;;;10314209;28;94766;-67
2023/07/23 08:37:11;;;;;;;;;;;21.80;60.20;;;;;;10331773;28;93997;-67
2023/07/23 08:42:27;;;;;;;;;;;21.80;60.10;;;;;;10310679;28;95896;-67
2023/07/23 08:47:29;;;;;;;;;;;21.80;60.30;;;;;;10330658;28;93575;-66
2023/07/23 08:52:32;;;;;;;;;;;21.80;60.20;;;;;;10332154;28;93381;-67
2023/07/23 08:57:35;;;;;;;;;;;21.80;60.30;;;;;;10313539;28;94427;-67
2023/07/23 09:02:37;;;;;;;;;;;21.80;60.30;;;;;;10332007;28;94559;-65
2023/07/23 09:07:39;;;;;;;;;;;21.70;60.30;;;;;;10331028;28;93751;-67
2023/07/23 09:12:41;;;;;;;;;;;21.80;60.20;;;;;;10312510;28;93785;-67
2023/07/23 09:17:47;;;;;;;;;;;21.70;60.40;;;;;;10330857;28;92747;-67
2023/07/23 09:22:49;;;;;;;;;;;21.70;60.50;;;;;;10330320;28;93290;-68
2023/07/23 09:27:51;;;;;;;;;;;21.70;60.30;;;;;;10329939;28;94534;-67
2023/07/23 09:32:57;;;;;;;;;;;21.70;60.40;;;;;;10327729;28;96215;-67
2023/07/23 09:38:00;;;;;;;;;;;21.70;60.40;;;;;;10328802;28;114244;-67
2023/07/23 09:43:02;;;;;;;;;;;21.70;61.50;;;;;;10311436;28;93478;-67
2023/07/23 09:48:04;;;;;;;;;;;21.70;60.50;;;;;;10329775;28;94846;-67
2023/07/23 09:53:17;;;;;;;;;;;21.70;60.30;;;;;;10329934;28;93951;-67
2023/07/23 09:58:20;;;;;;;;;;;21.70;60.40;;;;;;10312674;28;93457;-67
2023/07/23 10:03:21;;;;;;;;;;;21.70;60.50;;;;;;10328617;28;93456;-61
2023/07/23 10:08:23;;;;;;;;;;;21.60;60.50;;;;;;10330004;28;92787;-61
2023/07/23 10:13:25;;;;;;;;;;;21.60;60.80;;;;;;10311163;28;94408;-65
2023/07/23 10:18:28;;;;;;;;;;;21.70;61.50;;;;;;10309112;28;93625;-64
2023/07/23 10:23:30;;;;;;;;;;;21.80;61.90;;;;;;10326053;28;96802;-64
2023/07/23 10:28:31;;;;;;;;;;;21.80;61.60;;;;;;10327849;28;93467;-65
2023/07/23 10:33:34;;;;;;;;;;;21.90;61.40;;;;;;10309508;28;93646;-65
2023/07/23 10:38:36;;;;;;;;;;;21.90;61.60;;;;;;10328805;28;94531;-64
2023/07/23 10:43:38;;;;;;;;;;;21.90;62.00;;;;;;10328008;28;94536;-62
2023/07/23 10:48:50;;;;;;;;;;;21.90;61.80;;;;;;10326957;28;93580;-66
2023/07/23 10:53:54;;;;;;;;;;;22.00;61.30;;;;;;10309628;28;93803;-66
2023/07/23 10:59:08;;;;;;;;;;;22.10;61.50;;;;;;10328888;28;92470;-64
2023/07/23 11:04:18;;;;;;;;;;;22.10;61.60;;;;;;10327328;28;94438;-66
2023/07/23 11:09:27;;;;;;;;;;;22.10;61.80;;;;;;10327101;28;95022;-66
2023/07/23 11:14:29;;;;;;;;;;;22.00;62.80;;;;;;10325303;28;96860;-66
2023/07/23 11:19:31;;;;;;;;;;;22.10;62.00;;;;;;10327174;28;93576;-66
2023/07/23 11:24:33;;;;;;;;;;;22.00;61.50;;;;;;10325760;28;93483;-66
2023/07/23 11:29:35;;;;;;;;;;;22.00;61.30;;;;;;10326408;28;93357;-66
2023/07/23 11:34:37;;;;;;;;;;;21.90;61.90;;;;;;10326486;28;93477;-66
2023/07/23 11:39:47;;;;;;;;;;;21.90;62.20;;;;;;10326182;28;94458;-66
2023/07/23 11:44:58;;;;;;;;;;;21.90;62.40;;;;;;10329938;28;94363;-66
2023/07/23 11:50:00;;;;;;;;;;;21.90;62.40;;;;;;10317307;28;94776;-66
2023/07/23 11:55:02;;;;;;;;;;;21.90;62.70;;;;;;10332462;28;93560;-66
2023/07/23 12:00:04;;;;;;;;;;;21.90;62.90;;;;;;10332203;28;93487;-66
2023/07/23 12:05:06;;;;;;;;;;;21.90;63.20;;;;;;10312298;28;96830;-66
2023/07/23 12:10:08;;;;;;;;;;;21.90;63.40;;;;;;10313971;28;93562;-66
2023/07/23 12:15:11;;;;;;;;;;;21.90;63.40;;;;;;10332622;28;93469;-66
2023/07/23 12:20:19;;;;;;;;;;;22.00;63.50;;;;;;10314289;28;93429;-66
2023/07/23 12:25:22;;;;;;;;;;;22.00;63.50;;;;;;10331285;28;93501;-66
2023/07/23 12:30:24;;;;;;;;;;;22.00;63.70;;;;;;10331103;28;93581;-67
2023/07/23 12:35:26;;;;;;;;;;;22.00;63.80;;;;;;10332311;28;94161;-66
2023/07/23 12:40:27;;;;;;;;;;;22.00;63.90;;;;;;10332859;28;93717;-67
2023/07/23 12:45:29;;;;;;;;;;;22.00;64.00;;;;;;10313644;28;93472;-67
2023/07/23 12:50:31;;;;;;;;;;;22.00;64.00;;;;;;10332013;28;95071;-67
2023/07/23 12:55:33;;;;;;;;;;;22.10;64.00;;;;;;10327386;28;96105;-67
2023/07/23 13:00:35;;;;;;;;;;;22.10;65.00;;;;;;10330569;28;93810;-66
2023/07/23 13:05:37;;;;;;;;;;;22.10;64.10;;;;;;10313316;28;93479;-65
2023/07/23 13:10:39;;;;;;;;;;;22.10;64.30;;;;;;10331809;28;94057;-65
2023/07/23 13:15:40;;;;;;;;;;;22.10;64.40;;;;;;10332520;28;94591;-62
2023/07/23 13:20:42;;;;;;;;;;;22.20;64.80;;;;;;10331049;28;94383;-60
2023/07/23 13:25:44;;;;;;;;;;;22.30;65.00;;;;;;10331370;28;93395;-62
2023/07/23 13:30:46;;;;;;;;;;;22.30;64.90;;;;;;10331182;28;92640;-61
2023/07/23 13:35:48;;;;;;;;;;;22.30;64.70;;;;;;10330397;28;92686;-63
2023/07/23 13:40:50;;;;;;;;;;;22.40;64.80;;;;;;10312180;28;94023;-61
2023/07/23 13:45:52;;;;;;;;;;;22.40;64.70;;;;;;10309503;28;97230;-61
2023/07/23 13:50:54;;;;;;;;;;;22.40;64.60;;;;;;10328826;28;93515;-65
2023/07/23 13:55:55;;;;;;;;;;;22.40;64.60;;;;;;10330143;28;94645;-61
2023/07/23 14:00:57;;;;;;;;;;;22.40;64.50;;;;;;10328811;28;93519;-61
2023/07/23 14:05:59;;;;;;;;;;;22.40;64.60;;;;;;10328066;28;93449;-61
2023/07/23 14:11:01;;;;;;;;;;;22.40;64.60;;;;;;10310475;28;94873;-61
2023/07/23 14:16:03;;;;;;;;;;;22.40;64.60;;;;;;10328164;28;93471;-62
2023/07/23 14:21:04;;;;;;;;;;;22.30;64.60;;;;;;10328876;28;92717;-61
2023/07/23 14:26:06;;;;;;;;;;;22.30;64.40;;;;;;10309342;28;92739;-60
2023/07/23 14:31:08;;;;;;;;;;;22.30;64.30;;;;;;10310724;28;93867;-61
2023/07/23 14:36:10;;;;;;;;;;;22.30;64.00;;;;;;10326453;28;96951;-59
2023/07/23 14:41:12;;;;;;;;;;;22.40;63.90;;;;;;10310294;28;93323;-61
2023/07/23 14:46:14;;;;;;;;;;;22.40;63.60;;;;;;10327971;28;93728;-61
2023/07/23 14:51:16;;;;;;;;;;;22.40;63.40;;;;;;10327968;28;93478;-61
2023/07/23 14:56:18;;;;;;;;;;;22.40;63.50;;;;;;10327638;28;96185;-60
2023/07/23 15:01:19;;;;;;;;;;;22.40;63.30;;;;;;10309779;28;96402;-61
2023/07/23 15:06:21;;;;;;;;;;;22.40;63.10;;;;;;10327349;28;92531;-61
2023/07/23 15:11:23;;;;;;;;;;;22.40;63.10;;;;;;10327941;28;93630;-61
2023/07/23 15:16:25;;;;;;;;;;;22.40;63.10;;;;;;10327398;28;93482;-61
2023/07/23 15:21:27;;;;;;;;;;;22.40;63.00;;;;;;10334013;28;93462;-62
2023/07/23 15:26:30;;;;;;;;;;;22.40;63.00;;;;;;10331518;28;97329;-62
2023/07/23 15:31:32;;;;;;;;;;;22.40;62.80;;;;;;10300220;28;93978;-61
2023/07/23 15:36:34;;;;;;;;;;;22.40;62.70;;;;;;10333104;28;93601;-61
2023/07/23 15:41:36;;;;;;;;;;;22.40;62.80;;;;;;10333614;28;93468;-66
2023/07/23 15:46:38;;;;;;;;;;;22.40;63.10;;;;;;10332653;28;93479;-64
2023/07/23 15:51:43;;;;;;;;;;;22.50;63.00;;;;;;10333309;28;93459;-65
2023/07/23 15:56:45;;;;;;;;;;;22.70;62.60;;;;;;10333675;28;94574;-65
2023/07/23 16:01:47;;;;;;;;;;;22.80;62.20;;;;;;10317012;28;92260;-66
2023/07/23 16:06:49;;;;;;;;;;;22.80;62.20;;;;;;10314704;28;93476;-65
2023/07/23 16:11:51;;;;;;;;;;;22.70;62.30;;;;;;10332349;28;94519;-66
2023/07/23 16:16:52;;;;;;;;;;;22.70;62.40;;;;;;10330301;28;96392;-66
2023/07/23 16:21:54;;;;;;;;;;;22.70;62.60;;;;;;10330434;28;95087;-66
2023/07/23 16:26:56;;;;;;;;;;;22.60;62.60;;;;;;10314394;28;94395;-66
2023/07/23 16:31:58;;;;;;;;;;;22.60;62.60;;;;;;10331259;28;94200;-66
2023/07/23 16:37:01;;;;;;;;;;;22.60;62.70;;;;;;10313687;28;93814;-65
2023/07/23 16:42:03;;;;;;;;;;;22.50;62.70;;;;;;10331667;28;93489;-66
2023/07/23 16:47:05;;;;;;;;;;;22.50;62.70;;;;;;10312474;28;93804;-67
2023/07/23 16:52:07;;;;;;;;;;;22.50;62.70;;;;;;10332941;28;92854;-66
2023/07/23 16:57:09;;;;;;;;;;;22.50;62.70;;;;;;10330969;28;92866;-66
2023/07/23 17:02:13;;;;;;;;;;;22.50;62.70;;;;;;10329949;28;93463;-67
2023/07/23 17:07:14;;;;;;;;;;;22.50;62.80;;;;;;10328146;28;95827;-67
2023/07/23 17:12:16;;;;;;;;;;;22.50;62.70;;;;;;10330345;28;93502;-66
2023/07/23 17:17:18;;;;;;;;;;;22.50;62.70;;;;;;10331123;28;94448;-67
2023/07/23 17:22:20;;;;;;;;;;;22.50;62.80;;;;;;10331005;28;94523;-67
2023/07/23 17:27:22;;;;;;;;;;;22.50;62.90;;;;;;10329582;28;93523;-66
2023/07/23 17:32:24;;;;;;;;;;;22.60;62.80;;;;;;10330097;28;94119;-67
2023/07/23 17:37:26;;;;;;;;;;;22.60;62.80;;;;;;10329540;28;94447;-66
2023/07/23 17:42:28;;;;;;;;;;;22.50;62.70;;;;;;10330268;28;92656;-67
2023/07/23 17:47:30;;;;;;;;;;;22.50;62.70;;;;;;10329652;28;94526;-66
2023/07/23 17:52:32;;;;;;;;;;;22.50;62.80;;;;;;10329829;28;94469;-66
2023/07/23 17:57:34;;;;;;;;;;;22.50;62.80;;;;;;10325726;28;95916;-66
2023/07/23 18:02:36;;;;;;;;;;;22.40;62.80;;;;;;10329867;28;94524;-67
2023/07/23 18:07:37;;;;;;;;;;;22.40;62.80;;;;;;10310840;28;93653;-67
2023/07/23 18:12:39;;;;;;;;;;;22.40;62.70;;;;;;10328369;28;93444;-67
2023/07/23 18:17:41;;;;;;;;;;;22.40;62.70;;;;;;10329253;28;93445;-67
2023/07/23 18:22:43;;;;;;;;;;;22.40;62.90;;;;;;10328266;28;93312;-67
2023/07/23 18:27:48;;;;;;;;;;;22.40;62.90;;;;;;10327967;28;93467;-67
2023/07/23 18:32:50;;;;;;;;;;;22.40;62.70;;;;;;10328889;28;93074;-67
2023/07/23 18:37:52;;;;;;;;;;;22.40;62.60;;;;;;10329351;28;93433;-67
2023/07/23 18:42:55;;;;;;;;;;;22.40;62.60;;;;;;10328880;28;92902;-66
2023/07/23 18:47:56;;;;;;;;;;;22.40;62.60;;;;;;10324968;28;96770;-67
2023/07/23 18:52:58;;;;;;;;;;;22.40;62.70;;;;;;10329691;28;94469;-67
2023/07/23 18:58:00;;;;;;;;;;;22.40;62.70;;;;;;10334717;28;92534;-66
2023/07/23 19:03:03;;;;;;;;;;;22.40;62.70;;;;;;10335859;28;94293;-66
2023/07/23 19:08:05;;;;;;;;;;;22.40;62.60;;;;;;10335984;28;92512;-67
2023/07/23 19:13:06;;;;;;;;;;;22.40;62.70;;;;;;10334336;28;94368;-66
2023/07/23 19:18:08;;;;;;;;;;;22.40;62.80;;;;;;10334840;28;94077;-66
2023/07/23 19:23:10;;;;;;;;;;;22.40;62.80;;;;;;10334347;28;92653;-67
2023/07/23 19:28:12;;;;;;;;;;;22.40;62.80;;;;;;10334494;28;94401;-67
2023/07/23 19:33:13;;;;;;;;;;;22.40;62.80;;;;;;10334423;28;94772;-67
2023/07/23 19:38:15;;;;;;;;;;;22.40;62.70;;;;;;10330988;28;97064;-67
2023/07/23 19:43:17;;;;;;;;;;;22.40;62.80;;;;;;10333572;28;94649;-66
2023/07/23 19:48:19;;;;;;;;;;;22.40;62.70;;;;;;10333262;28;93926;-66
2023/07/23 19:53:23;;;;;;;;;;;22.40;62.60;;;;;;10315845;28;94511;-67
2023/07/23 19:58:24;;;;;;;;;;;22.40;62.60;;;;;;10333952;28;93463;-65
2023/07/23 20:03:26;;;;;;;;;;;22.40;62.60;;;;;;10332381;28;94450;-65
2023/07/23 20:08:28;;;;;;;;;;;22.40;62.60;;;;;;10331822;28;94276;-66
2023/07/23 20:13:30;;;;;;;;;;;22.40;62.60;;;;;;10315209;28;92665;-65
2023/07/23 20:18:33;;;;;;;;;;;22.40;62.70;;;;;;10332030;28;93247;-66
2023/07/23 20:23:34;;;;;;;;;;;22.40;62.70;;;;;;10333044;28;94351;-65
2023/07/23 20:28:36;;;;;;;;;;;22.40;62.60;;;;;;10330331;28;97140;-65
2023/07/23 20:33:38;;;;;;;;;;;22.40;62.60;;;;;;10331452;28;93403;-65
2023/07/23 20:38:40;;;;;;;;;;;22.40;62.60;;;;;;10332743;28;94472;-66
2023/07/23 20:43:42;;;;;;;;;;;22.40;62.70;;;;;;10314144;28;93300;-66
2023/07/23 20:48:44;;;;;;;;;;;22.40;62.60;;;;;;10331330;28;94539;-66
2023/07/23 20:53:47;;;;;;;;;;;22.40;62.60;;;;;;10354228;28;94635;-66
2023/07/23 20:58:49;;;;;;;;;;;22.40;62.70;;;;;;10373187;28;93433;-65
2023/07/23 21:03:51;;;;;;;;;;;22.40;62.90;;;;;;10372750;28;93143;-65
2023/07/23 21:08:53;;;;;;;;;;;22.40;63.00;;;;;;10371513;28;93416;-65
2023/07/23 21:13:54;;;;;;;;;;;22.40;62.90;;;;;;10372685;28;93439;-66
2023/07/23 21:18:56;;;;;;;;;;;22.50;62.90;;;;;;10368403;28;95850;-65
2023/07/23 21:23:58;;;;;;;;;;;22.50;62.90;;;;;;10371986;28;93997;-66
2023/07/23 21:28:59;;;;;;;;;;;22.50;62.90;;;;;;10371709;28;92576;-64
2023/07/23 21:34:01;;;;;;;;;;;22.40;62.80;;;;;;10371568;28;94477;-66
2023/07/23 21:39:03;;;;;;;;;;;22.50;62.80;;;;;;10370137;28;93495;-65
2023/07/23 21:44:05;;;;;;;;;;;22.40;62.80;;;;;;10371086;28;94194;-66
2023/07/23 21:49:06;;;;;;;;;;;22.50;62.90;;;;;;10352842;28;94420;-66
2023/07/23 21:54:08;;;;;;;;;;;22.50;62.90;;;;;;10371906;28;93646;-66
2023/07/23 21:59:10;;;;;;;;;;;22.50;62.80;;;;;;10370684;28;93481;-66
2023/07/23 22:04:11;;;;;;;;;;;22.50;62.80;;;;;;10370961;28;94488;-65
2023/07/23 22:09:13;;;;;;;;;;;22.50;62.80;;;;;;10367856;28;96367;-65
2023/07/23 22:14:15;;;;;;;;;;;22.40;62.70;;;;;;10371024;28;94481;-66
2023/07/23 22:19:17;;;;;;;;;;;22.50;62.80;;;;;;10336193;28;93597;-65
2023/07/23 22:24:19;;;;;;;;;;;22.40;62.60;;;;;;10353462;28;93799;-64
2023/07/23 22:29:21;;;;;;;;;;;22.50;62.70;;;;;;10370197;28;94466;-64
2023/07/23 22:34:22;;;;;;;;;;;22.50;62.60;;;;;;10370192;28;93265;-64
2023/07/23 22:39:24;;;;;;;;;;;22.50;62.60;;;;;;10369452;28;94550;-64
2023/07/23 22:44:26;;;;;;;;;;;22.50;62.60;;;;;;10370958;28;93707;-65
2023/07/23 22:49:29;;;;;;;;;;;22.50;62.60;;;;;;10368414;28;93671;-66
2023/07/23 22:54:31;;;;;;;;;;;22.50;62.50;;;;;;10368912;28;93467;-65
2023/07/23 22:59:33;;;;;;;;;;;22.40;62.50;;;;;;10366284;28;95857;-65
2023/07/23 23:04:45;;;;;;;;;;;22.40;62.60;;;;;;10369772;28;93675;-65
2023/07/23 23:09:48;;;;;;;;;;;22.40;62.80;;;;;;10350363;28;93502;-65
2023/07/23 23:14:50;;;;;;;;;;;22.40;62.90;;;;;;10351108;28;92861;-65
2023/07/23 23:19:51;;;;;;;;;;;22.40;62.90;;;;;;10350353;28;93460;-65
2023/07/23 23:24:53;;;;;;;;;;;22.40;63.10;;;;;;10367404;28;93491;-65
2023/07/23 23:29:55;;;;;;;;;;;22.30;62.90;;;;;;10367170;28;93557;-65
2023/07/23 23:34:56;;;;;;;;;;;22.30;63.00;;;;;;10368646;28;93652;-65
2023/07/23 23:39:58;;;;;;;;;;;22.30;63.00;;;;;;10371484;28;94493;-65
2023/07/23 23:45:01;;;;;;;;;;;22.30;63.10;;;;;;10375844;28;93469;-65
2023/07/23 23:50:03;;;;;;;;;;;22.20;63.20;;;;;;10371668;28;96740;-65
2023/07/23 23:55:04;;;;;;;;;;;22.30;63.50;;;;;;10375959;28;94393;-65
